sensor_id;sensor_type;location;lat;lon;timestamp;P1;durP1;ratioP1;P2;durP2;ratioP2
16115;SDS011;8162;47.104;15.432;2023-11-21T00:01:31;5.17;;;3.83;;
16115;SDS011;8162;47.104;15.432;2023-11-21T00:04:33;5.30;;;4.20;;
16115;SDS011;8162;47.104;15.432;2023-11-21T00:07:34;5.43;;;3.83;;
16115;SDS011;8162;47.104;15.432;2023-11-21T00:10:35;4.60;;;4.00;;
16115;SDS011;8162;47.104;15.432;2023-11-21T00:13:38;7.20;;;4.13;;
16115;SDS011;8162;47.104;15.432;2023-11-21T00:16:39;6.03;;;4.37;;
16115;SDS011;8162;47.104;15.432;2023-11-21T00:19:40;4.83;;;3.70;;
16115;SDS011;8162;47.104;15.432;2023-11-21T00:22:42;7.33;;;4.00;;
16115;SDS011;8162;47.104;15.432;2023-11-21T00:25:43;5.57;;;3.90;;
16115;SDS011;8162;47.104;15.432;2023-11-21T00:28:44;5.90;;;4.07;;
16115;SDS011;8162;47.104;15.432;2023-11-21T00:31:46;4.97;;;4.00;;
16115;SDS011;8162;47.104;15.432;2023-11-21T00:34:47;4.20;;;3.70;;
16115;SDS011;8162;47.104;15.432;2023-11-21T00:37:48;5.97;;;3.90;;
16115;SDS011;8162;47.104;15.432;2023-11-21T00:40:49;5.20;;;4.63;;
16115;SDS011;8162;47.104;15.432;2023-11-21T00:43:51;6.10;;;4.40;;
16115;SDS011;8162;47.104;15.432;2023-11-21T00:46:52;5.17;;;4.07;;
16115;SDS011;8162;47.104;15.432;2023-11-21T00:49:54;6.87;;;4.20;;
16115;SDS011;8162;47.104;15.432;2023-11-21T00:52:56;6.27;;;3.90;;
16115;SDS011;8162;47.104;15.432;2023-11-21T00:55:58;8.80;;;4.17;;
16115;SDS011;8162;47.104;15.432;2023-11-21T00:58:59;5.50;;;4.07;;
16115;SDS011;8162;47.104;15.432;2023-11-21T01:02:00;5.90;;;4.03;;
16115;SDS011;8162;47.104;15.432;2023-11-21T01:05:01;5.67;;;4.30;;
16115;SDS011;8162;47.104;15.432;2023-11-21T01:08:03;6.70;;;4.13;;
16115;SDS011;8162;47.104;15.432;2023-11-21T01:11:05;5.90;;;4.30;;
16115;SDS011;8162;47.104;15.432;2023-11-21T01:14:08;5.93;;;4.10;;
16115;SDS011;8162;47.104;15.432;2023-11-21T01:17:10;6.53;;;4.27;;
16115;SDS011;8162;47.104;15.432;2023-11-21T01:20:11;5.80;;;3.97;;
16115;SDS011;8162;47.104;15.432;2023-11-21T01:23:13;4.70;;;3.97;;
16115;SDS011;8162;47.104;15.432;2023-11-21T01:26:14;4.50;;;4.00;;
16115;SDS011;8162;47.104;15.432;2023-11-21T01:29:15;6.07;;;3.80;;
16115;SDS011;8162;47.104;15.432;2023-11-21T01:32:16;4.30;;;3.63;;
16115;SDS011;8162;47.104;15.432;2023-11-21T01:35:17;7.43;;;4.10;;
16115;SDS011;8162;47.104;15.432;2023-11-21T01:38:19;6.53;;;4.27;;
16115;SDS011;8162;47.104;15.432;2023-11-21T01:41:20;7.90;;;4.17;;
16115;SDS011;8162;47.104;15.432;2023-11-21T01:44:21;6.47;;;4.13;;
16115;SDS011;8162;47.104;15.432;2023-11-21T01:47:22;5.27;;;4.00;;
16115;SDS011;8162;47.104;15.432;2023-11-21T01:50:23;7.03;;;3.73;;
16115;SDS011;8162;47.104;15.432;2023-11-21T01:53:25;5.40;;;3.70;;
16115;SDS011;8162;47.104;15.432;2023-11-21T01:56:26;5.23;;;4.10;;
16115;SDS011;8162;47.104;15.432;2023-11-21T01:59:27;5.03;;;4.00;;
16115;SDS011;8162;47.104;15.432;2023-11-21T02:02:31;4.37;;;3.50;;
16115;SDS011;8162;47.104;15.432;2023-11-21T02:05:32;4.93;;;3.80;;
16115;SDS011;8162;47.104;15.432;2023-11-21T02:08:33;8.00;;;3.83;;
16115;SDS011;8162;47.104;15.432;2023-11-21T02:11:34;4.70;;;3.70;;
16115;SDS011;8162;47.104;15.432;2023-11-21T02:14:36;4.77;;;3.40;;
16115;SDS011;8162;47.104;15.432;2023-11-21T02:17:37;7.03;;;4.07;;
16115;SDS011;8162;47.104;15.432;2023-11-21T02:20:38;5.57;;;4.00;;
16115;SDS011;8162;47.104;15.432;2023-11-21T02:23:41;4.67;;;3.40;;
16115;SDS011;8162;47.104;15.432;2023-11-21T02:26:44;6.50;;;3.77;;
16115;SDS011;8162;47.104;15.432;2023-11-21T02:29:46;4.17;;;3.70;;
16115;SDS011;8162;47.104;15.432;2023-11-21T02:32:48;5.30;;;3.70;;
16115;SDS011;8162;47.104;15.432;2023-11-21T02:35:49;5.97;;;3.93;;
16115;SDS011;8162;47.104;15.432;2023-11-21T02:38:54;4.47;;;3.60;;
16115;SDS011;8162;47.104;15.432;2023-11-21T02:41:55;4.83;;;3.30;;
16115;SDS011;8162;47.104;15.432;2023-11-21T02:44:56;7.10;;;4.20;;
16115;SDS011;8162;47.104;15.432;2023-11-21T02:47:57;7.60;;;4.03;;
16115;SDS011;8162;47.104;15.432;2023-11-21T02:50:59;5.97;;;4.37;;
16115;SDS011;8162;47.104;15.432;2023-11-21T02:54:00;5.60;;;4.00;;
16115;SDS011;8162;47.104;15.432;2023-11-21T02:57:03;5.00;;;3.47;;
16115;SDS011;8162;47.104;15.432;2023-11-21T03:00:04;6.03;;;4.20;;
16115;SDS011;8162;47.104;15.432;2023-11-21T03:03:07;5.17;;;4.23;;
16115;SDS011;8162;47.104;15.432;2023-11-21T03:06:08;5.73;;;4.20;;
16115;SDS011;8162;47.104;15.432;2023-11-21T03:09:09;7.43;;;4.30;;
16115;SDS011;8162;47.104;15.432;2023-11-21T03:12:12;5.57;;;4.10;;
16115;SDS011;8162;47.104;15.432;2023-11-21T03:15:13;5.03;;;4.00;;
16115;SDS011;8162;47.104;15.432;2023-11-21T03:18:14;7.23;;;4.37;;
16115;SDS011;8162;47.104;15.432;2023-11-21T03:21:15;6.23;;;4.30;;
16115;SDS011;8162;47.104;15.432;2023-11-21T03:24:17;5.43;;;3.87;;
16115;SDS011;8162;47.104;15.432;2023-11-21T03:27:19;5.70;;;4.03;;
16115;SDS011;8162;47.104;15.432;2023-11-21T03:30:20;4.87;;;4.07;;
16115;SDS011;8162;47.104;15.432;2023-11-21T03:33:21;5.67;;;4.03;;
16115;SDS011;8162;47.104;15.432;2023-11-21T03:36:22;5.23;;;4.00;;
16115;SDS011;8162;47.104;15.432;2023-11-21T03:39:25;5.10;;;3.43;;
16115;SDS011;8162;47.104;15.432;2023-11-21T03:42:26;5.17;;;3.90;;
16115;SDS011;8162;47.104;15.432;2023-11-21T03:45:27;5.73;;;4.20;;
16115;SDS011;8162;47.104;15.432;2023-11-21T03:48:28;7.37;;;3.50;;
16115;SDS011;8162;47.104;15.432;2023-11-21T03:51:29;3.93;;;3.50;;
16115;SDS011;8162;47.104;15.432;2023-11-21T03:54:30;5.97;;;4.03;;
16115;SDS011;8162;47.104;15.432;2023-11-21T03:57:31;5.33;;;4.03;;
16115;SDS011;8162;47.104;15.432;2023-11-21T04:00:32;6.20;;;3.60;;
16115;SDS011;8162;47.104;15.432;2023-11-21T04:03:33;7.40;;;3.57;;
16115;SDS011;8162;47.104;15.432;2023-11-21T04:06:34;3.80;;;3.20;;
16115;SDS011;8162;47.104;15.432;2023-11-21T04:09:37;5.70;;;3.33;;
16115;SDS011;8162;47.104;15.432;2023-11-21T04:12:38;4.13;;;3.30;;
16115;SDS011;8162;47.104;15.432;2023-11-21T04:15:39;4.43;;;3.30;;
16115;SDS011;8162;47.104;15.432;2023-11-21T04:18:40;4.67;;;2.93;;
16115;SDS011;8162;47.104;15.432;2023-11-21T04:21:41;3.80;;;3.03;;
16115;SDS011;8162;47.104;15.432;2023-11-21T04:24:42;4.90;;;3.03;;
16115;SDS011;8162;47.104;15.432;2023-11-21T04:27:45;4.63;;;3.20;;
16115;SDS011;8162;47.104;15.432;2023-11-21T04:30:46;4.50;;;3.03;;
16115;SDS011;8162;47.104;15.432;2023-11-21T04:33:47;4.40;;;3.20;;
16115;SDS011;8162;47.104;15.432;2023-11-21T04:36:49;4.43;;;3.33;;
16115;SDS011;8162;47.104;15.432;2023-11-21T04:39:50;3.13;;;2.73;;
16115;SDS011;8162;47.104;15.432;2023-11-21T04:42:51;4.67;;;3.07;;
16115;SDS011;8162;47.104;15.432;2023-11-21T04:45:52;3.63;;;3.00;;
16115;SDS011;8162;47.104;15.432;2023-11-21T04:48:54;5.23;;;3.60;;
16115;SDS011;8162;47.104;15.432;2023-11-21T04:51:55;4.13;;;3.10;;
16115;SDS011;8162;47.104;15.432;2023-11-21T04:54:56;5.77;;;3.80;;
16115;SDS011;8162;47.104;15.432;2023-11-21T04:57:58;5.60;;;3.70;;
16115;SDS011;8162;47.104;15.432;2023-11-21T05:00:59;5.83;;;3.57;;
16115;SDS011;8162;47.104;15.432;2023-11-21T05:04:00;6.23;;;3.40;;
16115;SDS011;8162;47.104;15.432;2023-11-21T05:07:01;9.30;;;4.20;;
16115;SDS011;8162;47.104;15.432;2023-11-21T05:10:06;6.20;;;4.57;;
16115;SDS011;8162;47.104;15.432;2023-11-21T05:13:14;4.30;;;3.50;;
16115;SDS011;8162;47.104;15.432;2023-11-21T05:16:17;4.73;;;3.63;;
16115;SDS011;8162;47.104;15.432;2023-11-21T05:19:18;8.23;;;4.70;;
16115;SDS011;8162;47.104;15.432;2023-11-21T05:22:21;5.63;;;4.10;;
16115;SDS011;8162;47.104;15.432;2023-11-21T05:25:22;6.17;;;3.53;;
16115;SDS011;8162;47.104;15.432;2023-11-21T05:28:23;6.33;;;3.63;;
16115;SDS011;8162;47.104;15.432;2023-11-21T05:31:24;5.97;;;3.57;;
16115;SDS011;8162;47.104;15.432;2023-11-21T05:34:25;4.27;;;3.20;;
16115;SDS011;8162;47.104;15.432;2023-11-21T05:37:26;5.60;;;3.80;;
16115;SDS011;8162;47.104;15.432;2023-11-21T05:40:27;5.83;;;3.50;;
16115;SDS011;8162;47.104;15.432;2023-11-21T05:43:30;3.93;;;3.20;;
16115;SDS011;8162;47.104;15.432;2023-11-21T05:46:32;4.87;;;3.60;;
16115;SDS011;8162;47.104;15.432;2023-11-21T05:49:34;4.23;;;3.60;;
16115;SDS011;8162;47.104;15.432;2023-11-21T05:52:36;3.97;;;3.57;;
16115;SDS011;8162;47.104;15.432;2023-11-21T05:55:37;6.53;;;3.90;;
16115;SDS011;8162;47.104;15.432;2023-11-21T05:58:39;5.60;;;4.30;;
16115;SDS011;8162;47.104;15.432;2023-11-21T06:01:40;7.30;;;3.73;;
16115;SDS011;8162;47.104;15.432;2023-11-21T06:04:41;5.33;;;4.43;;
16115;SDS011;8162;47.104;15.432;2023-11-21T06:07:42;7.00;;;4.97;;
16115;SDS011;8162;47.104;15.432;2023-11-21T06:10:43;8.37;;;5.73;;
16115;SDS011;8162;47.104;15.432;2023-11-21T06:13:44;9.93;;;5.70;;
16115;SDS011;8162;47.104;15.432;2023-11-21T06:16:45;7.53;;;5.30;;
16115;SDS011;8162;47.104;15.432;2023-11-21T06:19:46;7.30;;;5.10;;
16115;SDS011;8162;47.104;15.432;2023-11-21T06:22:48;9.23;;;5.60;;
16115;SDS011;8162;47.104;15.432;2023-11-21T06:25:52;7.20;;;5.03;;
16115;SDS011;8162;47.104;15.432;2023-11-21T06:28:53;7.80;;;5.37;;
16115;SDS011;8162;47.104;15.432;2023-11-21T06:31:55;6.60;;;5.43;;
16115;SDS011;8162;47.104;15.432;2023-11-21T06:34:56;5.97;;;4.70;;
16115;SDS011;8162;47.104;15.432;2023-11-21T06:37:59;7.27;;;4.87;;
16115;SDS011;8162;47.104;15.432;2023-11-21T06:41:00;5.67;;;4.30;;
16115;SDS011;8162;47.104;15.432;2023-11-21T06:44:02;5.73;;;4.70;;
16115;SDS011;8162;47.104;15.432;2023-11-21T06:47:04;6.33;;;4.27;;
16115;SDS011;8162;47.104;15.432;2023-11-21T06:50:05;6.00;;;5.13;;
16115;SDS011;8162;47.104;15.432;2023-11-21T06:53:07;6.90;;;4.70;;
16115;SDS011;8162;47.104;15.432;2023-11-21T06:56:19;7.40;;;4.60;;
16115;SDS011;8162;47.104;15.432;2023-11-21T06:59:20;6.10;;;4.50;;
16115;SDS011;8162;47.104;15.432;2023-11-21T07:02:21;7.93;;;5.23;;
16115;SDS011;8162;47.104;15.432;2023-11-21T07:05:22;5.67;;;4.47;;
16115;SDS011;8162;47.104;15.432;2023-11-21T07:08:23;6.47;;;4.30;;
16115;SDS011;8162;47.104;15.432;2023-11-21T07:11:24;5.27;;;4.43;;
16115;SDS011;8162;47.104;15.432;2023-11-21T07:14:25;5.50;;;4.73;;
16115;SDS011;8162;47.104;15.432;2023-11-21T07:17:26;5.43;;;4.27;;
16115;SDS011;8162;47.104;15.432;2023-11-21T07:20:27;4.93;;;3.67;;
16115;SDS011;8162;47.104;15.432;2023-11-21T07:23:30;8.20;;;4.93;;
16115;SDS011;8162;47.104;15.432;2023-11-21T07:26:31;5.30;;;4.03;;
16115;SDS011;8162;47.104;15.432;2023-11-21T07:29:33;7.63;;;4.73;;
16115;SDS011;8162;47.104;15.432;2023-11-21T07:32:34;7.53;;;4.73;;
16115;SDS011;8162;47.104;15.432;2023-11-21T07:35:35;6.97;;;4.97;;
16115;SDS011;8162;47.104;15.432;2023-11-21T07:38:36;7.90;;;4.70;;
16115;SDS011;8162;47.104;15.432;2023-11-21T07:41:37;7.83;;;5.20;;
16115;SDS011;8162;47.104;15.432;2023-11-21T07:44:45;6.87;;;5.03;;
16115;SDS011;8162;47.104;15.432;2023-11-21T07:47:46;5.23;;;4.73;;
16115;SDS011;8162;47.104;15.432;2023-11-21T07:50:47;7.20;;;5.13;;
16115;SDS011;8162;47.104;15.432;2023-11-21T07:53:48;7.40;;;5.70;;
16115;SDS011;8162;47.104;15.432;2023-11-21T07:56:49;12.13;;;7.47;;
16115;SDS011;8162;47.104;15.432;2023-11-21T07:59:50;13.67;;;8.83;;
16115;SDS011;8162;47.104;15.432;2023-11-21T08:02:53;15.67;;;8.80;;
16115;SDS011;8162;47.104;15.432;2023-11-21T08:05:58;12.77;;;7.50;;
16115;SDS011;8162;47.104;15.432;2023-11-21T08:08:59;13.33;;;8.73;;
16115;SDS011;8162;47.104;15.432;2023-11-21T08:12:01;15.40;;;9.70;;
16115;SDS011;8162;47.104;15.432;2023-11-21T08:15:03;13.10;;;9.37;;
16115;SDS011;8162;47.104;15.432;2023-11-21T08:18:04;13.00;;;9.30;;
16115;SDS011;8162;47.104;15.432;2023-11-21T08:21:07;10.47;;;9.03;;
16115;SDS011;8162;47.104;15.432;2023-11-21T08:24:08;13.97;;;9.70;;
16115;SDS011;8162;47.104;15.432;2023-11-21T08:27:10;12.13;;;8.90;;
16115;SDS011;8162;47.104;15.432;2023-11-21T08:30:12;14.03;;;9.50;;
16115;SDS011;8162;47.104;15.432;2023-11-21T08:33:14;13.90;;;8.80;;
16115;SDS011;8162;47.104;15.432;2023-11-21T08:36:15;11.03;;;8.40;;
16115;SDS011;8162;47.104;15.432;2023-11-21T08:39:16;11.70;;;8.40;;
16115;SDS011;8162;47.104;15.432;2023-11-21T08:42:19;9.17;;;7.27;;
16115;SDS011;8162;47.104;15.432;2023-11-21T08:45:21;10.17;;;7.67;;
16115;SDS011;8162;47.104;15.432;2023-11-21T08:48:22;9.70;;;7.30;;
16115;SDS011;8162;47.104;15.432;2023-11-21T08:51:23;10.47;;;6.50;;
16115;SDS011;8162;47.104;15.432;2023-11-21T08:54:25;12.00;;;7.83;;
16115;SDS011;8162;47.104;15.432;2023-11-21T08:57:26;9.53;;;7.23;;
16115;SDS011;8162;47.104;15.432;2023-11-21T09:00:27;9.60;;;7.27;;
16115;SDS011;8162;47.104;15.432;2023-11-21T09:03:28;9.43;;;6.60;;
16115;SDS011;8162;47.104;15.432;2023-11-21T09:06:30;10.07;;;7.00;;
16115;SDS011;8162;47.104;15.432;2023-11-21T09:09:31;8.97;;;6.57;;
16115;SDS011;8162;47.104;15.432;2023-11-21T09:12:32;8.20;;;6.80;;
16115;SDS011;8162;47.104;15.432;2023-11-21T09:15:33;7.30;;;5.97;;
16115;SDS011;8162;47.104;15.432;2023-11-21T09:18:34;8.03;;;6.87;;
16115;SDS011;8162;47.104;15.432;2023-11-21T09:21:35;7.60;;;6.57;;
16115;SDS011;8162;47.104;15.432;2023-11-21T09:24:36;9.27;;;7.47;;
16115;SDS011;8162;47.104;15.432;2023-11-21T09:27:37;7.70;;;6.90;;
16115;SDS011;8162;47.104;15.432;2023-11-21T09:30:39;10.33;;;7.93;;
16115;SDS011;8162;47.104;15.432;2023-11-21T09:33:40;8.93;;;7.10;;
16115;SDS011;8162;47.104;15.432;2023-11-21T09:36:45;8.53;;;7.57;;
16115;SDS011;8162;47.104;15.432;2023-11-21T09:39:46;10.43;;;7.77;;
16115;SDS011;8162;47.104;15.432;2023-11-21T09:42:56;9.67;;;8.13;;
16115;SDS011;8162;47.104;15.432;2023-11-21T09:45:59;8.97;;;7.53;;
16115;SDS011;8162;47.104;15.432;2023-11-21T09:49:01;10.50;;;7.53;;
16115;SDS011;8162;47.104;15.432;2023-11-21T09:52:05;12.97;;;8.23;;
16115;SDS011;8162;47.104;15.432;2023-11-21T09:55:08;10.00;;;8.30;;
16115;SDS011;8162;47.104;15.432;2023-11-21T09:58:13;9.20;;;8.03;;
16115;SDS011;8162;47.104;15.432;2023-11-21T10:01:15;17.23;;;9.67;;
16115;SDS011;8162;47.104;15.432;2023-11-21T10:04:17;13.57;;;10.20;;
16115;SDS011;8162;47.104;15.432;2023-11-21T10:07:18;13.50;;;9.13;;
16115;SDS011;8162;47.104;15.432;2023-11-21T10:10:20;12.83;;;9.07;;
16115;SDS011;8162;47.104;15.432;2023-11-21T10:13:21;12.33;;;8.20;;
16115;SDS011;8162;47.104;15.432;2023-11-21T10:16:23;12.20;;;8.40;;
16115;SDS011;8162;47.104;15.432;2023-11-21T10:19:26;12.63;;;8.43;;
16115;SDS011;8162;47.104;15.432;2023-11-21T10:22:27;13.73;;;8.80;;
16115;SDS011;8162;47.104;15.432;2023-11-21T10:25:28;9.20;;;7.93;;
16115;SDS011;8162;47.104;15.432;2023-11-21T10:28:30;11.77;;;7.87;;
16115;SDS011;8162;47.104;15.432;2023-11-21T10:31:31;10.27;;;7.80;;
16115;SDS011;8162;47.104;15.432;2023-11-21T10:34:32;9.13;;;7.13;;
16115;SDS011;8162;47.104;15.432;2023-11-21T10:37:34;7.17;;;6.30;;
16115;SDS011;8162;47.104;15.432;2023-11-21T10:40:38;10.60;;;7.27;;
16115;SDS011;8162;47.104;15.432;2023-11-21T10:43:40;8.47;;;6.00;;
16115;SDS011;8162;47.104;15.432;2023-11-21T10:46:41;7.17;;;5.33;;
16115;SDS011;8162;47.104;15.432;2023-11-21T10:49:43;7.73;;;6.23;;
16115;SDS011;8162;47.104;15.432;2023-11-21T10:52:45;8.40;;;5.87;;
16115;SDS011;8162;47.104;15.432;2023-11-21T10:55:47;10.37;;;6.70;;
16115;SDS011;8162;47.104;15.432;2023-11-21T10:58:48;7.17;;;6.03;;
16115;SDS011;8162;47.104;15.432;2023-11-21T11:01:54;7.53;;;6.47;;
16115;SDS011;8162;47.104;15.432;2023-11-21T11:04:55;6.90;;;5.50;;
16115;SDS011;8162;47.104;15.432;2023-11-21T11:08:04;7.03;;;5.97;;
16115;SDS011;8162;47.104;15.432;2023-11-21T11:11:05;6.10;;;5.53;;
16115;SDS011;8162;47.104;15.432;2023-11-21T11:14:13;8.70;;;6.43;;
16115;SDS011;8162;47.104;15.432;2023-11-21T11:17:14;8.10;;;6.67;;
16115;SDS011;8162;47.104;15.432;2023-11-21T11:20:16;7.63;;;6.13;;
16115;SDS011;8162;47.104;15.432;2023-11-21T11:26:46;10.77;;;6.80;;
16115;SDS011;8162;47.104;15.432;2023-11-21T11:29:52;10.53;;;6.23;;
16115;SDS011;8162;47.104;15.432;2023-11-21T11:36:27;8.10;;;6.63;;
16115;SDS011;8162;47.104;15.432;2023-11-21T11:39:30;7.53;;;6.10;;
16115;SDS011;8162;47.104;15.432;2023-11-21T11:42:35;8.57;;;5.87;;
16115;SDS011;8162;47.104;15.432;2023-11-21T11:45:36;8.13;;;6.20;;
16115;SDS011;8162;47.104;15.432;2023-11-21T11:48:41;11.07;;;6.20;;
16115;SDS011;8162;47.104;15.432;2023-11-21T11:51:42;6.80;;;5.87;;
16115;SDS011;8162;47.104;15.432;2023-11-21T11:54:43;8.90;;;6.90;;
16115;SDS011;8162;47.104;15.432;2023-11-21T11:57:44;10.47;;;7.70;;
16115;SDS011;8162;47.104;15.432;2023-11-21T12:00:47;7.17;;;6.47;;
16115;SDS011;8162;47.104;15.432;2023-11-21T12:07:17;8.90;;;6.87;;
16115;SDS011;8162;47.104;15.432;2023-11-21T12:10:18;8.97;;;6.57;;
16115;SDS011;8162;47.104;15.432;2023-11-21T12:13:20;7.87;;;6.60;;
16115;SDS011;8162;47.104;15.432;2023-11-21T12:16:23;8.73;;;7.20;;
16115;SDS011;8162;47.104;15.432;2023-11-21T12:19:27;6.93;;;6.23;;
16115;SDS011;8162;47.104;15.432;2023-11-21T12:22:28;7.43;;;5.80;;
16115;SDS011;8162;47.104;15.432;2023-11-21T12:25:29;8.73;;;6.30;;
16115;SDS011;8162;47.104;15.432;2023-11-21T12:28:34;8.13;;;6.37;;
16115;SDS011;8162;47.104;15.432;2023-11-21T12:31:35;10.50;;;7.47;;
16115;SDS011;8162;47.104;15.432;2023-11-21T12:34:36;6.77;;;5.87;;
16115;SDS011;8162;47.104;15.432;2023-11-21T12:37:39;8.93;;;6.27;;
16115;SDS011;8162;47.104;15.432;2023-11-21T12:40:40;10.00;;;6.33;;
16115;SDS011;8162;47.104;15.432;2023-11-21T12:43:41;8.97;;;6.80;;
16115;SDS011;8162;47.104;15.432;2023-11-21T12:46:43;7.00;;;5.70;;
16115;SDS011;8162;47.104;15.432;2023-11-21T12:49:45;8.47;;;6.33;;
16115;SDS011;8162;47.104;15.432;2023-11-21T12:52:46;6.93;;;6.20;;
16115;SDS011;8162;47.104;15.432;2023-11-21T12:55:47;8.57;;;5.70;;
16115;SDS011;8162;47.104;15.432;2023-11-21T12:58:53;8.23;;;6.07;;
16115;SDS011;8162;47.104;15.432;2023-11-21T13:01:57;10.60;;;6.20;;
16115;SDS011;8162;47.104;15.432;2023-11-21T13:05:04;8.07;;;5.67;;
16115;SDS011;8162;47.104;15.432;2023-11-21T13:08:12;6.87;;;5.33;;
16115;SDS011;8162;47.104;15.432;2023-11-21T13:11:14;8.07;;;5.73;;
16115;SDS011;8162;47.104;15.432;2023-11-21T13:14:15;7.40;;;5.63;;
16115;SDS011;8162;47.104;15.432;2023-11-21T13:20:24;9.17;;;6.60;;
16115;SDS011;8162;47.104;15.432;2023-11-21T13:23:26;7.43;;;5.87;;
16115;SDS011;8162;47.104;15.432;2023-11-21T13:26:29;7.37;;;5.43;;
16115;SDS011;8162;47.104;15.432;2023-11-21T13:29:30;8.67;;;5.40;;
16115;SDS011;8162;47.104;15.432;2023-11-21T13:32:31;7.00;;;6.07;;
16115;SDS011;8162;47.104;15.432;2023-11-21T13:35:42;9.13;;;5.73;;
16115;SDS011;8162;47.104;15.432;2023-11-21T13:38:46;7.67;;;5.67;;
16115;SDS011;8162;47.104;15.432;2023-11-21T13:41:47;10.30;;;6.00;;
16115;SDS011;8162;47.104;15.432;2023-11-21T13:44:56;8.13;;;5.73;;
16115;SDS011;8162;47.104;15.432;2023-11-21T13:47:57;6.60;;;5.27;;
16115;SDS011;8162;47.104;15.432;2023-11-21T13:50:58;9.20;;;6.20;;
16115;SDS011;8162;47.104;15.432;2023-11-21T13:54:10;6.83;;;6.07;;
16115;SDS011;8162;47.104;15.432;2023-11-21T13:57:11;7.47;;;6.30;;
16115;SDS011;8162;47.104;15.432;2023-11-21T14:00:13;10.27;;;6.03;;
16115;SDS011;8162;47.104;15.432;2023-11-21T14:03:44;11.07;;;7.57;;
16115;SDS011;8162;47.104;15.432;2023-11-21T14:06:51;10.60;;;6.80;;
16115;SDS011;8162;47.104;15.432;2023-11-21T14:09:54;7.23;;;6.30;;
16115;SDS011;8162;47.104;15.432;2023-11-21T14:12:56;8.60;;;5.70;;
16115;SDS011;8162;47.104;15.432;2023-11-21T14:15:58;9.03;;;5.73;;
16115;SDS011;8162;47.104;15.432;2023-11-21T14:19:00;8.87;;;5.70;;
16115;SDS011;8162;47.104;15.432;2023-11-21T14:22:13;5.83;;;5.23;;
16115;SDS011;8162;47.104;15.432;2023-11-21T14:25:15;7.17;;;5.53;;
16115;SDS011;8162;47.104;15.432;2023-11-21T14:28:17;8.90;;;6.53;;
16115;SDS011;8162;47.104;15.432;2023-11-21T14:31:19;9.00;;;6.40;;
16115;SDS011;8162;47.104;15.432;2023-11-21T14:34:20;7.80;;;6.27;;
16115;SDS011;8162;47.104;15.432;2023-11-21T14:37:21;7.73;;;6.23;;
16115;SDS011;8162;47.104;15.432;2023-11-21T14:40:22;7.60;;;6.80;;
16115;SDS011;8162;47.104;15.432;2023-11-21T14:43:24;9.43;;;6.27;;
16115;SDS011;8162;47.104;15.432;2023-11-21T14:46:29;6.93;;;6.13;;
16115;SDS011;8162;47.104;15.432;2023-11-21T14:49:31;10.80;;;7.57;;
16115;SDS011;8162;47.104;15.432;2023-11-21T14:52:43;10.40;;;7.37;;
16115;SDS011;8162;47.104;15.432;2023-11-21T14:55:55;9.60;;;6.57;;
16115;SDS011;8162;47.104;15.432;2023-11-21T14:59:00;8.27;;;6.87;;
16115;SDS011;8162;47.104;15.432;2023-11-21T15:02:16;9.33;;;7.07;;
16115;SDS011;8162;47.104;15.432;2023-11-21T15:05:22;8.60;;;6.77;;
16115;SDS011;8162;47.104;15.432;2023-11-21T15:08:24;8.13;;;6.73;;
16115;SDS011;8162;47.104;15.432;2023-11-21T15:11:32;10.13;;;7.23;;
16115;SDS011;8162;47.104;15.432;2023-11-21T15:14:33;9.73;;;7.67;;
16115;SDS011;8162;47.104;15.432;2023-11-21T15:17:36;10.47;;;8.27;;
16115;SDS011;8162;47.104;15.432;2023-11-21T15:20:42;10.70;;;7.87;;
16115;SDS011;8162;47.104;15.432;2023-11-21T15:23:45;10.57;;;7.53;;
16115;SDS011;8162;47.104;15.432;2023-11-21T15:26:46;8.13;;;6.73;;
16115;SDS011;8162;47.104;15.432;2023-11-21T15:29:47;11.40;;;9.23;;
16115;SDS011;8162;47.104;15.432;2023-11-21T15:32:51;11.37;;;9.07;;
16115;SDS011;8162;47.104;15.432;2023-11-21T15:35:53;9.37;;;7.67;;
16115;SDS011;8162;47.104;15.432;2023-11-21T15:38:54;10.63;;;8.00;;
16115;SDS011;8162;47.104;15.432;2023-11-21T15:41:56;10.27;;;7.87;;
16115;SDS011;8162;47.104;15.432;2023-11-21T15:44:57;9.13;;;6.87;;
16115;SDS011;8162;47.104;15.432;2023-11-21T15:47:59;8.60;;;7.17;;
16115;SDS011;8162;47.104;15.432;2023-11-21T15:51:01;10.50;;;8.23;;
16115;SDS011;8162;47.104;15.432;2023-11-21T15:54:04;13.20;;;7.60;;
16115;SDS011;8162;47.104;15.432;2023-11-21T15:57:06;13.20;;;8.30;;
16115;SDS011;8162;47.104;15.432;2023-11-21T16:00:08;9.70;;;8.70;;
16115;SDS011;8162;47.104;15.432;2023-11-21T16:03:11;11.10;;;7.00;;
16115;SDS011;8162;47.104;15.432;2023-11-21T16:06:13;12.00;;;8.43;;
16115;SDS011;8162;47.104;15.432;2023-11-21T16:09:15;8.87;;;7.97;;
16115;SDS011;8162;47.104;15.432;2023-11-21T16:12:23;9.60;;;8.60;;
16115;SDS011;8162;47.104;15.432;2023-11-21T16:15:24;10.60;;;8.37;;
16115;SDS011;8162;47.104;15.432;2023-11-21T16:18:26;10.50;;;8.83;;
16115;SDS011;8162;47.104;15.432;2023-11-21T16:21:27;12.13;;;9.10;;
16115;SDS011;8162;47.104;15.432;2023-11-21T16:24:28;13.20;;;10.43;;
16115;SDS011;8162;47.104;15.432;2023-11-21T16:27:30;14.47;;;10.70;;
16115;SDS011;8162;47.104;15.432;2023-11-21T16:30:31;15.10;;;9.97;;
16115;SDS011;8162;47.104;15.432;2023-11-21T16:33:33;11.90;;;10.43;;
16115;SDS011;8162;47.104;15.432;2023-11-21T16:36:34;15.20;;;12.50;;
16115;SDS011;8162;47.104;15.432;2023-11-21T16:39:35;12.17;;;10.70;;
16115;SDS011;8162;47.104;15.432;2023-11-21T16:42:38;13.20;;;10.37;;
16115;SDS011;8162;47.104;15.432;2023-11-21T16:45:39;20.30;;;11.70;;
16115;SDS011;8162;47.104;15.432;2023-11-21T16:48:40;17.93;;;11.80;;
16115;SDS011;8162;47.104;15.432;2023-11-21T16:51:45;14.70;;;11.13;;
16115;SDS011;8162;47.104;15.432;2023-11-21T16:54:46;12.57;;;10.47;;
16115;SDS011;8162;47.104;15.432;2023-11-21T16:57:48;22.43;;;17.93;;
16115;SDS011;8162;47.104;15.432;2023-11-21T17:00:51;21.90;;;19.77;;
16115;SDS011;8162;47.104;15.432;2023-11-21T17:03:53;23.37;;;19.80;;
16115;SDS011;8162;47.104;15.432;2023-11-21T17:06:54;20.63;;;16.80;;
16115;SDS011;8162;47.104;15.432;2023-11-21T17:09:55;15.47;;;13.87;;
16115;SDS011;8162;47.104;15.432;2023-11-21T17:12:56;18.93;;;13.27;;
16115;SDS011;8162;47.104;15.432;2023-11-21T17:15:58;15.10;;;12.90;;
16115;SDS011;8162;47.104;15.432;2023-11-21T17:18:59;23.17;;;18.47;;
16115;SDS011;8162;47.104;15.432;2023-11-21T17:22:00;24.93;;;17.47;;
16115;SDS011;8162;47.104;15.432;2023-11-21T17:25:01;24.90;;;18.00;;
16115;SDS011;8162;47.104;15.432;2023-11-21T17:28:02;20.67;;;15.73;;
16115;SDS011;8162;47.104;15.432;2023-11-21T17:31:04;17.47;;;14.27;;
16115;SDS011;8162;47.104;15.432;2023-11-21T17:34:05;21.53;;;14.33;;
16115;SDS011;8162;47.104;15.432;2023-11-21T17:37:07;20.67;;;15.23;;
16115;SDS011;8162;47.104;15.432;2023-11-21T17:40:08;17.70;;;14.17;;
16115;SDS011;8162;47.104;15.432;2023-11-21T17:43:09;17.30;;;13.07;;
16115;SDS011;8162;47.104;15.432;2023-11-21T17:46:10;15.27;;;12.70;;
16115;SDS011;8162;47.104;15.432;2023-11-21T17:49:11;13.97;;;11.87;;
16115;SDS011;8162;47.104;15.432;2023-11-21T17:52:12;19.90;;;13.07;;
16115;SDS011;8162;47.104;15.432;2023-11-21T17:55:13;18.17;;;14.60;;
16115;SDS011;8162;47.104;15.432;2023-11-21T17:58:15;21.07;;;16.10;;
16115;SDS011;8162;47.104;15.432;2023-11-21T18:01:16;17.90;;;15.60;;
16115;SDS011;8162;47.104;15.432;2023-11-21T18:04:17;20.13;;;15.53;;
16115;SDS011;8162;47.104;15.432;2023-11-21T18:07:19;20.27;;;14.47;;
16115;SDS011;8162;47.104;15.432;2023-11-21T18:10:20;15.03;;;11.93;;
16115;SDS011;8162;47.104;15.432;2023-11-21T18:13:21;14.67;;;12.07;;
16115;SDS011;8162;47.104;15.432;2023-11-21T18:16:22;17.20;;;11.57;;
16115;SDS011;8162;47.104;15.432;2023-11-21T18:19:23;14.33;;;11.70;;
16115;SDS011;8162;47.104;15.432;2023-11-21T18:22:24;14.43;;;12.07;;
16115;SDS011;8162;47.104;15.432;2023-11-21T18:25:27;16.20;;;11.77;;